createdAt,value
2023-04-26T00:02:07.534Z,3.98
2023-04-26T00:04:36.646Z,3.94
2023-04-26T00:07:04.845Z,3.82
2023-04-26T00:09:32.715Z,3.87
2023-04-26T00:12:01.121Z,3.81
2023-04-26T00:14:28.964Z,3.68
2023-04-26T00:16:56.775Z,3.63
2023-04-26T00:19:24.850Z,3.51
2023-04-26T00:21:53.901Z,3.41
2023-04-26T00:24:22.182Z,3.30
2023-04-26T00:26:49.834Z,3.25
2023-04-26T00:29:17.476Z,3.20
2023-04-26T00:31:45.246Z,3.17
2023-04-26T00:34:12.943Z,3.14
2023-04-26T00:36:40.948Z,3.11
2023-04-26T00:39:10.455Z,3.11
2023-04-26T00:41:38.291Z,3.24
2023-04-26T00:44:06.271Z,3.23
2023-04-26T00:46:33.876Z,3.15
2023-04-26T00:49:01.637Z,3.03
2023-04-26T00:51:29.440Z,3.08
2023-04-26T00:53:58.120Z,3.04
2023-04-26T00:56:27.236Z,3.04
2023-04-26T00:58:55.286Z,3.15
2023-04-26T01:01:23.106Z,3.08
2023-04-26T01:03:50.954Z,2.99
2023-04-26T01:06:18.898Z,3.03
2023-04-26T01:08:46.659Z,3.00
2023-04-26T01:11:15.721Z,2.95
2023-04-26T01:13:45.141Z,2.87
2023-04-26T01:16:14.911Z,2.87
2023-04-26T01:18:43.046Z,2.92
2023-04-26T01:21:11.378Z,2.75
2023-04-26T01:23:40.372Z,2.72
2023-04-26T01:26:07.965Z,2.78
2023-04-26T01:28:35.874Z,2.76
2023-04-26T01:31:03.556Z,2.76
2023-04-26T01:33:31.388Z,2.68
2023-04-26T01:35:59.188Z,2.72
2023-04-26T01:38:26.815Z,2.68
2023-04-26T01:40:55.815Z,2.69
2023-04-26T01:43:23.477Z,2.66
2023-04-26T01:45:51.239Z,2.64
2023-04-26T01:48:18.855Z,2.56
2023-04-26T01:50:46.715Z,2.46
2023-04-26T01:53:14.463Z,2.40
2023-04-26T01:55:42.119Z,2.36
2023-04-26T01:58:11.143Z,2.46
2023-04-26T02:00:39.108Z,2.44
2023-04-26T02:03:06.962Z,2.49
2023-04-26T02:05:35.301Z,2.44
2023-04-26T02:08:03.295Z,2.31
2023-04-26T02:10:31.208Z,2.24
2023-04-26T02:12:59.082Z,2.20
2023-04-26T02:15:28.216Z,2.22
2023-04-26T02:17:55.940Z,2.16
2023-04-26T02:20:23.836Z,2.11
2023-04-26T02:22:51.524Z,2.10
2023-04-26T02:25:19.274Z,1.98
2023-04-26T02:27:46.865Z,1.93
2023-04-26T02:30:15.016Z,1.94
2023-04-26T02:32:44.004Z,1.92
2023-04-26T02:35:11.770Z,1.78
2023-04-26T02:37:39.410Z,1.88
2023-04-26T02:40:10.823Z,1.74
2023-04-26T02:42:38.604Z,1.73
2023-04-26T02:45:08.018Z,1.51
2023-04-26T02:47:36.809Z,1.60
2023-04-26T02:50:07.582Z,1.54
2023-04-26T02:52:35.805Z,1.51
2023-04-26T02:55:04.413Z,1.43
2023-04-26T02:57:32.230Z,1.55
2023-04-26T03:00:00.911Z,1.56
2023-04-26T03:02:28.883Z,1.44
2023-04-26T03:04:56.996Z,1.44
2023-04-26T03:07:26.028Z,1.48
2023-04-26T03:09:53.648Z,1.47
2023-04-26T03:12:21.361Z,1.40
2023-04-26T03:14:49.373Z,1.46
2023-04-26T03:17:17.160Z,1.40
2023-04-26T03:19:44.844Z,1.36
2023-04-26T03:22:16.001Z,1.35
2023-04-26T03:24:46.852Z,1.32
2023-04-26T03:27:14.645Z,1.35
2023-04-26T03:29:43.982Z,1.40
2023-04-26T03:32:12.004Z,1.38
2023-04-26T03:34:39.716Z,1.27
2023-04-26T03:37:07.687Z,1.35
2023-04-26T03:39:35.348Z,1.45
2023-04-26T03:42:04.465Z,1.37
2023-04-26T03:44:32.400Z,1.42
2023-04-26T03:47:00.076Z,1.29
2023-04-26T03:49:27.700Z,1.29
2023-04-26T03:51:55.359Z,1.18
2023-04-26T03:54:22.979Z,1.16
2023-04-26T03:56:50.688Z,1.10
2023-04-26T03:59:19.674Z,1.16
2023-04-26T04:01:47.370Z,1.10
2023-04-26T04:04:15.170Z,1.06
2023-04-26T04:06:43.111Z,1.11
2023-04-26T04:09:10.811Z,1.03
2023-04-26T04:11:38.431Z,1.05
2023-04-26T04:14:07.292Z,0.87
2023-04-26T04:16:36.448Z,0.85
2023-04-26T04:19:04.136Z,0.87
2023-04-26T04:21:32.073Z,0.94
2023-04-26T04:23:59.820Z,0.92
2023-04-26T04:26:27.984Z,0.85
2023-04-26T04:28:56.416Z,0.85
2023-04-26T04:31:24.901Z,0.87
2023-04-26T04:33:53.998Z,0.91
2023-04-26T04:36:21.631Z,0.93
2023-04-26T04:38:49.324Z,0.97
2023-04-26T04:41:17.033Z,0.96
2023-04-26T04:43:44.764Z,0.94
2023-04-26T04:46:13.226Z,1.06
2023-04-26T04:48:41.544Z,0.85
2023-04-26T04:51:10.532Z,0.96
2023-04-26T04:53:38.334Z,1.03
2023-04-26T04:56:06.517Z,1.11
2023-04-26T04:58:34.330Z,1.26
2023-04-26T05:01:02.963Z,1.26
2023-04-26T05:03:30.797Z,1.32
2023-04-26T05:05:58.656Z,1.37
2023-04-26T05:08:27.832Z,1.45
2023-04-26T05:10:56.772Z,1.66
2023-04-26T05:13:24.412Z,1.89
2023-04-26T05:15:52.086Z,1.92
2023-04-26T05:18:19.724Z,2.02
2023-04-26T05:20:47.494Z,2.20
2023-04-26T05:23:15.228Z,2.31
2023-04-26T05:25:44.161Z,2.28
2023-04-26T05:28:12.770Z,2.50
2023-04-26T05:30:40.682Z,2.56
2023-04-26T05:33:08.501Z,2.48
2023-04-26T05:35:36.345Z,2.72
2023-04-26T05:38:04.821Z,2.95
2023-04-26T05:40:32.693Z,2.98
2023-04-26T05:43:02.011Z,3.16
2023-04-26T05:45:29.686Z,3.22
2023-04-26T05:47:57.393Z,3.55
2023-04-26T05:50:25.303Z,3.40
2023-04-26T05:52:52.901Z,3.48
2023-04-26T05:55:21.514Z,3.66
2023-04-26T05:57:49.270Z,3.85
2023-04-26T06:00:20.877Z,3.90
2023-04-26T06:02:48.774Z,4.20
2023-04-26T06:05:16.694Z,4.23
2023-04-26T06:07:46.103Z,4.61
2023-04-26T06:10:14.088Z,4.52
2023-04-26T06:12:42.193Z,4.80
2023-04-26T06:15:11.123Z,5.03
2023-04-26T06:17:40.573Z,5.62
2023-04-26T06:20:09.974Z,5.61
2023-04-26T06:22:37.959Z,5.45
2023-04-26T06:25:06.824Z,5.85
2023-04-26T06:27:34.746Z,6.15
2023-04-26T06:30:04.734Z,6.42
2023-04-26T06:32:32.428Z,7.10
2023-04-26T06:35:01.590Z,7.68
2023-04-26T06:37:29.449Z,8.07
2023-04-26T06:39:57.086Z,8.18
2023-04-26T06:42:24.749Z,8.03
2023-04-26T06:44:52.438Z,8.70
2023-04-26T06:47:20.219Z,8.50
2023-04-26T06:49:47.894Z,9.74
2023-04-26T06:52:17.084Z,10.63
2023-04-26T06:54:55.938Z,10.97
2023-04-26T06:57:24.573Z,11.02
2023-04-26T06:59:52.371Z,11.20
2023-04-26T07:02:20.177Z,11.84
2023-04-26T07:04:48.087Z,11.90
2023-04-26T07:07:17.185Z,11.82
2023-04-26T07:09:45.120Z,12.19
2023-04-26T07:12:12.795Z,11.90
2023-04-26T07:14:41.478Z,12.50
2023-04-26T07:17:09.453Z,12.37
2023-04-26T07:19:37.582Z,11.08
2023-04-26T07:22:05.616Z,10.57
2023-04-26T07:24:34.857Z,11.36
2023-04-26T07:27:03.450Z,12.26
2023-04-26T07:29:31.275Z,12.69
2023-04-26T07:31:59.206Z,12.63
2023-04-26T07:34:26.939Z,11.62
2023-04-26T07:36:54.657Z,11.93
2023-04-26T07:39:22.289Z,11.99
2023-04-26T07:41:51.580Z,12.12
2023-04-26T07:44:19.241Z,12.55
2023-04-26T07:46:47.083Z,13.20
2023-04-26T07:49:14.860Z,13.11
2023-04-26T07:51:45.620Z,12.79
2023-04-26T07:54:13.308Z,12.96
2023-04-26T07:56:41.036Z,12.96
2023-04-26T07:59:10.173Z,13.78
2023-04-26T08:01:37.793Z,13.86
2023-04-26T08:04:06.566Z,13.51
2023-04-26T08:06:34.418Z,13.68
2023-04-26T08:09:02.181Z,13.25
2023-04-26T08:11:29.945Z,13.93
2023-04-26T08:13:57.734Z,13.77
2023-04-26T08:16:26.990Z,14.39
2023-04-26T08:18:54.778Z,13.62
2023-04-26T08:21:22.443Z,14.28
2023-04-26T08:23:50.159Z,15.10
2023-04-26T08:26:17.812Z,15.18
2023-04-26T08:28:45.493Z,14.30
2023-04-26T08:31:13.554Z,14.30
2023-04-26T08:33:43.728Z,14.44
2023-04-26T08:36:11.494Z,15.04
2023-04-26T08:38:39.111Z,15.26
2023-04-26T08:41:08.117Z,15.42
2023-04-26T08:43:38.253Z,14.66
2023-04-26T08:46:11.992Z,15.39
2023-04-26T08:48:39.929Z,15.00
2023-04-26T08:51:14.368Z,15.25
2023-04-26T08:53:42.897Z,13.50
2023-04-26T08:56:13.404Z,14.47
2023-04-26T08:58:41.319Z,14.77
2023-04-26T09:01:10.343Z,14.02
2023-04-26T09:03:38.164Z,13.30
2023-04-26T09:06:09.124Z,13.47
2023-04-26T09:08:39.652Z,13.93
2023-04-26T09:11:07.562Z,14.11
2023-04-26T09:13:35.254Z,13.89
2023-04-26T09:16:04.923Z,13.51
2023-04-26T09:18:33.939Z,12.75
2023-04-26T09:21:07.023Z,12.97
2023-04-26T09:23:36.857Z,13.22
2023-04-26T09:26:17.416Z,13.49
2023-04-26T09:28:46.614Z,13.63
2023-04-26T09:31:24.591Z,13.38
2023-04-26T09:34:01.724Z,13.00
2023-04-26T09:36:29.307Z,13.08
2023-04-26T09:38:58.464Z,12.30
2023-04-26T09:41:43.247Z,12.96
2023-04-26T09:44:22.295Z,12.74
2023-04-26T09:47:04.741Z,13.01
2023-04-26T09:49:33.983Z,12.62
2023-04-26T09:52:03.290Z,13.59
2023-04-26T09:54:43.534Z,13.50
2023-04-26T09:57:11.803Z,13.11
2023-04-26T09:59:47.142Z,13.86
2023-04-26T10:02:21.925Z,13.61
2023-04-26T10:04:51.262Z,12.43
2023-04-26T10:07:21.090Z,13.00
2023-04-26T10:09:51.253Z,13.01
2023-04-26T10:12:20.853Z,13.66
2023-04-26T10:14:49.757Z,14.55
2023-04-26T10:17:19.779Z,13.31
2023-04-26T10:19:51.309Z,13.99
2023-04-26T10:22:23.101Z,14.09
2023-04-26T10:24:54.334Z,13.91
2023-04-26T10:27:50.167Z,14.21
2023-04-26T10:30:19.033Z,14.36
2023-04-26T10:33:17.400Z,14.73
2023-04-26T10:36:11.361Z,15.03
2023-04-26T10:38:40.972Z,15.59
2023-04-26T10:41:32.895Z,16.06
2023-04-26T10:44:21.890Z,16.00
2023-04-26T10:46:52.688Z,15.47
2023-04-26T10:49:26.464Z,14.84
2023-04-26T10:52:14.767Z,15.28
2023-04-26T10:54:56.212Z,15.84
2023-04-26T10:57:46.630Z,14.81
2023-04-26T11:00:28.556Z,15.10
2023-04-26T11:03:12.650Z,14.98
2023-04-26T11:05:52.400Z,14.43
2023-04-26T11:08:21.815Z,14.65
2023-04-26T11:11:00.573Z,14.90
2023-04-26T11:13:31.914Z,14.94
2023-04-26T11:16:03.343Z,14.55
2023-04-26T11:18:31.853Z,14.28
2023-04-26T11:21:00.197Z,14.74
2023-04-26T11:23:29.884Z,14.65
2023-04-26T11:25:59.046Z,14.47
2023-04-26T11:28:26.959Z,14.55
2023-04-26T11:30:56.285Z,14.50
2023-04-26T11:33:24.566Z,14.90
2023-04-26T11:35:53.035Z,14.89
2023-04-26T11:38:23.397Z,14.58
2023-04-26T11:40:56.021Z,14.85
2023-04-26T11:43:23.831Z,13.97
2023-04-26T11:45:51.654Z,14.06
2023-04-26T11:48:20.819Z,14.80
2023-04-26T11:50:48.671Z,14.35
2023-04-26T11:53:16.496Z,14.18
2023-04-26T11:55:44.222Z,14.30
2023-04-26T11:58:14.196Z,14.59
2023-04-26T12:00:58.075Z,14.29
2023-04-26T12:03:32.311Z,14.55
2023-04-26T12:06:01.292Z,14.32
2023-04-26T12:08:29.174Z,14.81
2023-04-26T12:11:02.050Z,14.15
2023-04-26T12:13:30.584Z,14.77
2023-04-26T12:15:58.255Z,14.80
2023-04-26T12:18:33.479Z,14.15
2023-04-26T12:21:02.111Z,15.14
2023-04-26T12:23:39.342Z,15.68
2023-04-26T12:26:07.569Z,15.47
2023-04-26T12:28:35.262Z,15.44
2023-04-26T12:31:04.524Z,14.27
2023-04-26T12:33:33.597Z,14.61
2023-04-26T12:36:07.648Z,15.93
2023-04-26T12:38:35.448Z,15.58
2023-04-26T12:41:03.438Z,14.86
2023-04-26T12:43:31.050Z,15.41
2023-04-26T12:45:58.784Z,15.49
2023-04-26T12:48:26.527Z,14.59
2023-04-26T12:50:55.836Z,14.62
2023-04-26T12:53:23.517Z,14.70
2023-04-26T12:55:51.207Z,15.64
2023-04-26T12:58:18.933Z,15.57
2023-04-26T13:00:46.597Z,15.83
2023-04-26T13:03:15.352Z,15.98
2023-04-26T13:05:43.195Z,14.83
2023-04-26T13:08:12.503Z,15.64
2023-04-26T13:10:40.464Z,15.90
2023-04-26T13:13:08.096Z,15.81
2023-04-26T13:15:35.904Z,16.04
2023-04-26T13:18:03.821Z,16.03
2023-04-26T13:20:31.650Z,16.24
2023-04-26T13:22:59.447Z,16.65
2023-04-26T13:25:28.511Z,16.29
2023-04-26T13:27:56.127Z,15.08
2023-04-26T13:30:23.838Z,16.10
2023-04-26T13:32:51.652Z,16.32
2023-04-26T13:35:19.696Z,16.09
2023-04-26T13:37:47.448Z,15.83
2023-04-26T13:40:15.180Z,15.44
2023-04-26T13:42:44.238Z,15.43
2023-04-26T13:45:17.060Z,15.98
2023-04-26T13:47:46.557Z,15.38
2023-04-26T13:50:14.268Z,15.66
2023-04-26T13:52:41.982Z,15.70
2023-04-26T13:55:10.227Z,16.09
2023-04-26T13:57:37.920Z,15.91
2023-04-26T14:00:08.978Z,16.49
2023-04-26T14:02:36.913Z,16.36
2023-04-26T14:05:05.812Z,15.73
2023-04-26T14:07:34.003Z,15.26
2023-04-26T14:10:02.172Z,16.29
2023-04-26T14:12:30.616Z,16.39
2023-04-26T14:14:58.279Z,15.94
2023-04-26T14:17:29.069Z,15.61
2023-04-26T14:19:57.228Z,16.17
2023-04-26T14:22:25.820Z,16.34
2023-04-26T14:24:53.594Z,16.30
2023-04-26T14:27:21.331Z,15.54
2023-04-26T14:29:49.063Z,15.91
2023-04-26T14:32:16.749Z,16.98
2023-04-26T14:34:46.023Z,17.75
2023-04-26T14:37:13.666Z,16.66
2023-04-26T14:39:41.993Z,17.10
2023-04-26T14:42:09.828Z,17.73
2023-04-26T14:44:37.527Z,17.98
2023-04-26T14:47:05.332Z,16.61
2023-04-26T14:49:33.053Z,17.43
2023-04-26T14:52:02.138Z,16.43
2023-04-26T14:54:29.895Z,16.61
2023-04-26T14:56:58.178Z,17.18
2023-04-26T14:59:25.946Z,17.28
2023-04-26T15:01:53.830Z,17.74
2023-04-26T15:04:21.757Z,17.87
2023-04-26T15:06:49.591Z,18.46
2023-04-26T15:09:18.783Z,18.15
2023-04-26T15:11:46.446Z,17.64
2023-04-26T15:14:14.184Z,17.56
2023-04-26T15:16:41.963Z,17.91
2023-04-26T15:19:09.760Z,17.02
2023-04-26T15:21:37.513Z,17.47
2023-04-26T15:24:07.569Z,17.56
2023-04-26T15:26:36.627Z,17.32
2023-04-26T15:29:04.532Z,16.75
2023-04-26T15:31:32.281Z,15.88
2023-04-26T15:33:59.942Z,16.86
2023-04-26T15:36:28.129Z,17.08
2023-04-26T15:38:56.115Z,17.27
2023-04-26T15:41:24.077Z,17.34
2023-04-26T15:43:55.879Z,17.14
2023-04-26T15:46:23.570Z,16.88
2023-04-26T15:48:51.516Z,17.00
2023-04-26T15:51:19.351Z,16.78
2023-04-26T15:53:47.114Z,16.85
2023-04-26T15:56:15.719Z,16.38
2023-04-26T15:58:45.062Z,16.10
2023-04-26T16:01:14.679Z,16.02
2023-04-26T16:03:46.444Z,15.88
2023-04-26T16:06:15.457Z,16.55
2023-04-26T16:08:43.261Z,16.39
2023-04-26T16:11:11.162Z,15.98
2023-04-26T16:13:38.941Z,15.47
2023-04-26T16:16:08.292Z,15.63
2023-04-26T16:18:39.620Z,15.53
2023-04-26T16:21:09.544Z,15.62
2023-04-26T16:23:37.857Z,15.95
2023-04-26T16:26:06.034Z,15.59
2023-04-26T16:28:33.818Z,15.97
2023-04-26T16:31:01.639Z,15.91
2023-04-26T16:33:29.675Z,15.34
2023-04-26T16:35:58.734Z,15.77
2023-04-26T16:38:26.818Z,15.80
2023-04-26T16:40:57.474Z,15.42
2023-04-26T16:43:27.042Z,14.96
2023-04-26T16:45:59.220Z,15.54
2023-04-26T16:48:27.396Z,14.12
2023-04-26T16:50:55.412Z,14.92
2023-04-26T16:53:24.450Z,15.05
2023-04-26T16:55:52.172Z,14.80
2023-04-26T16:58:20.066Z,14.81
2023-04-26T17:00:48.220Z,14.83
2023-04-26T17:03:16.415Z,14.77
2023-04-26T17:05:46.834Z,15.28
2023-04-26T17:08:15.044Z,15.52
2023-04-26T17:10:45.194Z,15.80
2023-04-26T17:13:13.767Z,15.94
2023-04-26T17:15:41.993Z,15.34
2023-04-26T17:18:10.058Z,15.15
2023-04-26T17:20:37.862Z,14.96
2023-04-26T17:23:05.933Z,15.00
2023-04-26T17:25:33.656Z,15.09
2023-04-26T17:28:03.456Z,14.75
2023-04-26T17:30:31.996Z,15.19
2023-04-26T17:33:00.027Z,15.15
2023-04-26T17:35:27.939Z,15.02
2023-04-26T17:37:55.620Z,15.01
2023-04-26T17:40:23.280Z,14.91
2023-04-26T17:42:51.268Z,14.81
2023-04-26T17:45:20.452Z,14.46
2023-04-26T17:47:48.358Z,14.48
2023-04-26T17:50:17.729Z,14.41
2023-04-26T17:52:46.680Z,14.01
2023-04-26T17:55:14.436Z,14.30
2023-04-26T17:57:42.167Z,14.27
2023-04-26T18:00:11.691Z,14.29
2023-04-26T18:02:42.190Z,14.01
2023-04-26T18:05:10.828Z,14.29
2023-04-26T18:07:38.789Z,13.83
2023-04-26T18:10:07.712Z,13.50
2023-04-26T18:12:36.289Z,13.04
2023-04-26T18:15:04.375Z,13.12
2023-04-26T18:17:32.247Z,12.85
2023-04-26T18:20:01.741Z,13.16
2023-04-26T18:22:29.814Z,13.25
2023-04-26T18:24:57.626Z,12.76
2023-04-26T18:27:25.661Z,12.86
2023-04-26T18:29:53.425Z,13.29
2023-04-26T18:32:21.287Z,13.13
2023-04-26T18:34:49.559Z,13.04
2023-04-26T18:37:18.764Z,12.02
2023-04-26T18:39:46.552Z,12.36
2023-04-26T18:42:14.226Z,12.49
2023-04-26T18:44:42.057Z,12.30
2023-04-26T18:47:09.847Z,12.05
2023-04-26T18:49:37.610Z,12.06
2023-04-26T18:52:08.743Z,11.99
2023-04-26T18:54:39.091Z,11.49
2023-04-26T18:57:06.983Z,11.78
2023-04-26T18:59:34.831Z,11.94
2023-04-26T19:02:04.206Z,12.14
2023-04-26T19:04:32.433Z,12.08
2023-04-26T19:07:01.142Z,12.62
2023-04-26T19:09:28.921Z,12.41
2023-04-26T19:11:58.199Z,12.37
2023-04-26T19:14:26.031Z,11.94
2023-04-26T19:16:53.749Z,12.22
2023-04-26T19:19:21.915Z,12.18
2023-04-26T19:21:49.679Z,12.15
2023-04-26T19:24:19.016Z,11.94
2023-04-26T19:26:46.861Z,11.66
2023-04-26T19:29:16.024Z,11.38
2023-04-26T19:31:43.865Z,10.88
2023-04-26T19:34:12.810Z,10.79
2023-04-26T19:36:40.850Z,10.52
2023-04-26T19:39:08.711Z,10.53
2023-04-26T19:41:36.565Z,10.29
2023-04-26T19:44:04.419Z,9.94
2023-04-26T19:46:33.849Z,9.71
2023-04-26T19:49:01.686Z,9.54
2023-04-26T19:51:29.600Z,9.51
2023-04-26T19:53:57.285Z,9.15
2023-04-26T19:56:25.220Z,9.20
2023-04-26T19:58:52.984Z,9.17
2023-04-26T20:01:20.906Z,9.07
2023-04-26T20:03:50.122Z,9.08
2023-04-26T20:06:17.997Z,9.01
2023-04-26T20:08:45.692Z,8.94
2023-04-26T20:11:16.793Z,8.74
2023-04-26T20:13:45.391Z,8.68
2023-04-26T20:16:13.658Z,8.72
2023-04-26T20:18:41.324Z,8.70
2023-04-26T20:21:10.460Z,8.50
2023-04-26T20:23:38.188Z,8.45
2023-04-26T20:26:06.154Z,8.32
2023-04-26T20:28:33.781Z,8.23
2023-04-26T20:31:01.472Z,8.23
2023-04-26T20:33:29.152Z,8.08
2023-04-26T20:35:56.969Z,7.96
2023-04-26T20:38:26.109Z,8.07
2023-04-26T20:40:53.819Z,7.93
2023-04-26T20:43:21.436Z,7.89
2023-04-26T20:45:49.096Z,7.71
2023-04-26T20:48:16.733Z,7.68
2023-04-26T20:50:44.439Z,7.75
2023-04-26T20:53:12.099Z,7.66
2023-04-26T20:55:41.234Z,7.73
2023-04-26T20:58:09.553Z,7.57
2023-04-26T21:00:37.205Z,7.48
2023-04-26T21:03:05.336Z,7.49
2023-04-26T21:05:33.127Z,7.45
2023-04-26T21:08:00.775Z,7.28
2023-04-26T21:10:28.431Z,7.13
2023-04-26T21:12:57.424Z,7.10
2023-04-26T21:15:25.193Z,7.10
2023-04-26T21:17:53.169Z,7.01
2023-04-26T21:20:21.207Z,6.95
2023-04-26T21:22:48.881Z,6.91
2023-04-26T21:25:19.489Z,6.85
2023-04-26T21:27:47.245Z,6.66
2023-04-26T21:30:16.664Z,6.67
2023-04-26T21:32:44.407Z,6.58
2023-04-26T21:35:12.363Z,6.54
2023-04-26T21:37:40.106Z,6.50
2023-04-26T21:40:09.255Z,6.60
2023-04-26T21:42:36.934Z,6.47
2023-04-26T21:45:05.180Z,6.39
2023-04-26T21:47:34.332Z,6.38
2023-04-26T21:50:02.651Z,6.32
2023-04-26T21:52:30.432Z,6.15
2023-04-26T21:54:58.060Z,6.22
2023-04-26T21:57:25.892Z,6.21
2023-04-26T21:59:53.696Z,6.03
2023-04-26T22:02:21.463Z,5.94
2023-04-26T22:04:50.697Z,5.88
2023-04-26T22:07:18.387Z,5.81
2023-04-26T22:09:46.171Z,5.84
2023-04-26T22:12:13.791Z,5.72
2023-04-26T22:14:41.523Z,5.70
2023-04-26T22:17:09.283Z,5.87
2023-04-26T22:19:36.938Z,5.81
2023-04-26T22:22:06.037Z,5.67
2023-04-26T22:24:33.911Z,5.67
2023-04-26T22:27:02.349Z,5.74
2023-04-26T22:29:30.339Z,5.58
2023-04-26T22:31:58.093Z,5.43
2023-04-26T22:34:25.739Z,5.39
2023-04-26T22:36:53.356Z,5.43
2023-04-26T22:39:22.396Z,5.37
2023-04-26T22:41:50.070Z,5.35
2023-04-26T22:44:17.779Z,5.23
2023-04-26T22:46:45.569Z,5.22
2023-04-26T22:49:13.400Z,5.11
2023-04-26T22:51:42.792Z,5.17
2023-04-26T22:54:13.739Z,5.35
2023-04-26T22:56:42.746Z,5.17
2023-04-26T22:59:10.775Z,5.14
2023-04-26T23:01:38.689Z,5.08
2023-04-26T23:04:06.331Z,5.00
2023-04-26T23:06:34.171Z,4.94
2023-04-26T23:09:01.858Z,4.87
2023-04-26T23:11:29.477Z,4.87
2023-04-26T23:13:58.513Z,4.81
2023-04-26T23:16:26.224Z,4.72
2023-04-26T23:18:54.237Z,4.72
2023-04-26T23:21:21.994Z,4.71
2023-04-26T23:23:49.702Z,4.62
2023-04-26T23:26:17.341Z,4.56
2023-04-26T23:28:44.983Z,4.56
2023-04-26T23:31:14.005Z,4.51
2023-04-26T23:33:41.890Z,4.62
2023-04-26T23:36:10.404Z,4.58
2023-04-26T23:38:38.057Z,4.52
2023-04-26T23:41:06.074Z,4.40
2023-04-26T23:43:33.756Z,4.39
2023-04-26T23:46:01.571Z,4.30
2023-04-26T23:48:30.642Z,4.20
2023-04-26T23:51:00.123Z,4.24
2023-04-26T23:53:28.313Z,4.23
2023-04-26T23:55:56.128Z,4.08
2023-04-26T23:58:23.721Z,4.12
